sensor_id;sensor_type;location;lat;lon;timestamp;pressure;altitude;pressure_sealevel;temperature;humidity
64521;BME280;50896;46.714;17.322;2024-01-27T00:00:10;101378.13;;;5.23;100.00
64521;BME280;50896;46.714;17.322;2024-01-27T00:02:37;101383.47;;;5.22;100.00
64521;BME280;50896;46.714;17.322;2024-01-27T00:05:04;101376.72;;;5.18;100.00
64521;BME280;50896;46.714;17.322;2024-01-27T00:07:31;101375.31;;;5.12;100.00
64521;BME280;50896;46.714;17.322;2024-01-27T00:09:58;101386.84;;;5.24;100.00
64521;BME280;50896;46.714;17.322;2024-01-27T00:12:26;101368.72;;;5.19;100.00
64521;BME280;50896;46.714;17.322;2024-01-27T00:14:53;101373.13;;;5.19;100.00
64521;BME280;50896;46.714;17.322;2024-01-27T00:17:20;101375.16;;;5.28;100.00
64521;BME280;50896;46.714;17.322;2024-01-27T00:19:51;101361.88;;;5.29;100.00
64521;BME280;50896;46.714;17.322;2024-01-27T00:22:19;101352.91;;;5.32;100.00
64521;BME280;50896;46.714;17.322;2024-01-27T00:24:47;101332.63;;;5.58;100.00
64521;BME280;50896;46.714;17.322;2024-01-27T00:27:14;101311.78;;;5.92;100.00
64521;BME280;50896;46.714;17.322;2024-01-27T00:29:42;101324.31;;;6.14;100.00
64521;BME280;50896;46.714;17.322;2024-01-27T00:32:09;101348.53;;;6.32;100.00
64521;BME280;50896;46.714;17.322;2024-01-27T00:34:37;101369.94;;;6.41;100.00
64521;BME280;50896;46.714;17.322;2024-01-27T00:37:04;101372.13;;;6.47;100.00
64521;BME280;50896;46.714;17.322;2024-01-27T00:39:31;101367.84;;;6.81;100.00
64521;BME280;50896;46.714;17.322;2024-01-27T00:41:58;101363.09;;;6.98;100.00
64521;BME280;50896;46.714;17.322;2024-01-27T00:44:26;101393.97;;;6.97;100.00
64521;BME280;50896;46.714;17.322;2024-01-27T00:46:53;101398.78;;;6.92;100.00
64521;BME280;50896;46.714;17.322;2024-01-27T00:49:19;101406.63;;;7.05;100.00
64521;BME280;50896;46.714;17.322;2024-01-27T00:51:47;101408.06;;;6.98;100.00
64521;BME280;50896;46.714;17.322;2024-01-27T00:54:14;101438.25;;;7.07;100.00
64521;BME280;50896;46.714;17.322;2024-01-27T00:56:42;101444.41;;;7.18;100.00
64521;BME280;50896;46.714;17.322;2024-01-27T00:59:09;101451.16;;;7.23;100.00
64521;BME280;50896;46.714;17.322;2024-01-27T01:01:36;101448.75;;;7.19;100.00
64521;BME280;50896;46.714;17.322;2024-01-27T01:04:03;101457.16;;;7.13;100.00
64521;BME280;50896;46.714;17.322;2024-01-27T01:06:30;101467.69;;;7.02;100.00
64521;BME280;50896;46.714;17.322;2024-01-27T01:08:57;101476.78;;;6.98;100.00
64521;BME280;50896;46.714;17.322;2024-01-27T01:11:23;101478.25;;;7.02;100.00
64521;BME280;50896;46.714;17.322;2024-01-27T01:13:50;101489.38;;;6.94;100.00
64521;BME280;50896;46.714;17.322;2024-01-27T01:16:18;101497.38;;;6.81;100.00
64521;BME280;50896;46.714;17.322;2024-01-27T01:18:44;101490.78;;;6.87;100.00
64521;BME280;50896;46.714;17.322;2024-01-27T01:21:11;101489.72;;;6.90;100.00
64521;BME280;50896;46.714;17.322;2024-01-27T01:23:38;101478.63;;;6.84;100.00
64521;BME280;50896;46.714;17.322;2024-01-27T01:26:05;101483.09;;;6.84;100.00
64521;BME280;50896;46.714;17.322;2024-01-27T01:28:32;101494.84;;;6.80;100.00
64521;BME280;50896;46.714;17.322;2024-01-27T01:30:59;101484.81;;;6.72;100.00
64521;BME280;50896;46.714;17.322;2024-01-27T01:33:26;101484.69;;;6.74;100.00
64521;BME280;50896;46.714;17.322;2024-01-27T01:35:53;101492.31;;;6.78;100.00
64521;BME280;50896;46.714;17.322;2024-01-27T01:38:20;101488.91;;;6.76;100.00
64521;BME280;50896;46.714;17.322;2024-01-27T01:40:47;101480.47;;;6.71;100.00
64521;BME280;50896;46.714;17.322;2024-01-27T01:43:14;101472.66;;;6.70;100.00
64521;BME280;50896;46.714;17.322;2024-01-27T01:45:41;101477.53;;;6.76;100.00
64521;BME280;50896;46.714;17.322;2024-01-27T01:48:08;101487.97;;;6.77;100.00
64521;BME280;50896;46.714;17.322;2024-01-27T01:50:36;101465.13;;;6.76;100.00
64521;BME280;50896;46.714;17.322;2024-01-27T01:53:04;101474.13;;;6.74;100.00
64521;BME280;50896;46.714;17.322;2024-01-27T01:55:31;101461.38;;;6.67;100.00
64521;BME280;50896;46.714;17.322;2024-01-27T01:57:58;101463.25;;;6.65;100.00
64521;BME280;50896;46.714;17.322;2024-01-27T02:00:25;101469.91;;;6.71;100.00
64521;BME280;50896;46.714;17.322;2024-01-27T02:02:52;101473.41;;;6.72;100.00
64521;BME280;50896;46.714;17.322;2024-01-27T02:05:19;101476.41;;;6.67;100.00
64521;BME280;50896;46.714;17.322;2024-01-27T02:07:46;101459.06;;;6.63;100.00
64521;BME280;50896;46.714;17.322;2024-01-27T02:10:14;101484.50;;;6.64;100.00
64521;BME280;50896;46.714;17.322;2024-01-27T02:12:44;101460.44;;;6.56;100.00
64521;BME280;50896;46.714;17.322;2024-01-27T02:15:12;101452.84;;;6.51;100.00
64521;BME280;50896;46.714;17.322;2024-01-27T02:17:40;101465.53;;;6.46;100.00
64521;BME280;50896;46.714;17.322;2024-01-27T02:20:08;101471.13;;;6.54;100.00
64521;BME280;50896;46.714;17.322;2024-01-27T02:22:35;101463.19;;;6.67;100.00
64521;BME280;50896;46.714;17.322;2024-01-27T02:25:03;101448.38;;;6.64;100.00
64521;BME280;50896;46.714;17.322;2024-01-27T02:27:30;101455.44;;;6.64;100.00
64521;BME280;50896;46.714;17.322;2024-01-27T02:29:57;101452.50;;;6.56;100.00
64521;BME280;50896;46.714;17.322;2024-01-27T02:32:24;101429.72;;;6.55;100.00
64521;BME280;50896;46.714;17.322;2024-01-27T02:34:51;101450.97;;;6.53;100.00
64521;BME280;50896;46.714;17.322;2024-01-27T02:37:18;101440.22;;;6.43;100.00
64521;BME280;50896;46.714;17.322;2024-01-27T02:39:46;101443.81;;;6.42;100.00
64521;BME280;50896;46.714;17.322;2024-01-27T02:42:13;101438.63;;;6.41;100.00
64521;BME280;50896;46.714;17.322;2024-01-27T02:44:40;101424.81;;;6.24;100.00
64521;BME280;50896;46.714;17.322;2024-01-27T02:47:06;101438.63;;;6.41;100.00
64521;BME280;50896;46.714;17.322;2024-01-27T02:49:33;101439.69;;;6.38;100.00
64521;BME280;50896;46.714;17.322;2024-01-27T02:52:00;101443.84;;;6.29;100.00
64521;BME280;50896;46.714;17.322;2024-01-27T02:54:27;101455.47;;;6.27;100.00
64521;BME280;50896;46.714;17.322;2024-01-27T02:56:54;101471.19;;;6.28;100.00
64521;BME280;50896;46.714;17.322;2024-01-27T02:59:21;101471.94;;;6.18;100.00
64521;BME280;50896;46.714;17.322;2024-01-27T03:01:48;101482.00;;;5.99;100.00
64521;BME280;50896;46.714;17.322;2024-01-27T03:04:15;101481.84;;;5.88;100.00
64521;BME280;50896;46.714;17.322;2024-01-27T03:06:42;101494.84;;;5.78;100.00
64521;BME280;50896;46.714;17.322;2024-01-27T03:09:09;101498.19;;;5.68;100.00
64521;BME280;50896;46.714;17.322;2024-01-27T03:11:37;101488.47;;;5.55;100.00
64521;BME280;50896;46.714;17.322;2024-01-27T03:14:04;101492.69;;;5.45;100.00
64521;BME280;50896;46.714;17.322;2024-01-27T03:16:31;101499.81;;;5.30;100.00
64521;BME280;50896;46.714;17.322;2024-01-27T03:18:59;101499.69;;;5.19;100.00
64521;BME280;50896;46.714;17.322;2024-01-27T03:21:27;101500.09;;;5.12;100.00
64521;BME280;50896;46.714;17.322;2024-01-27T03:23:54;101495.53;;;5.14;100.00
64521;BME280;50896;46.714;17.322;2024-01-27T03:26:21;101497.16;;;5.17;100.00
64521;BME280;50896;46.714;17.322;2024-01-27T03:28:48;101499.69;;;5.19;100.00
64521;BME280;50896;46.714;17.322;2024-01-27T03:31:14;101503.47;;;5.14;100.00
64521;BME280;50896;46.714;17.322;2024-01-27T03:33:41;101496.31;;;5.17;100.00
64521;BME280;50896;46.714;17.322;2024-01-27T03:36:12;101502.41;;;5.17;100.00
64521;BME280;50896;46.714;17.322;2024-01-27T03:38:40;101502.75;;;5.25;100.00
64521;BME280;50896;46.714;17.322;2024-01-27T03:41:08;101513.63;;;5.21;100.00
64521;BME280;50896;46.714;17.322;2024-01-27T03:43:34;101518.13;;;5.19;100.00
64521;BME280;50896;46.714;17.322;2024-01-27T03:46:02;101506.00;;;5.16;100.00
64521;BME280;50896;46.714;17.322;2024-01-27T03:48:29;101507.38;;;5.22;100.00
64521;BME280;50896;46.714;17.322;2024-01-27T03:50:56;101510.00;;;5.22;100.00
64521;BME280;50896;46.714;17.322;2024-01-27T03:53:24;101524.16;;;5.21;100.00
64521;BME280;50896;46.714;17.322;2024-01-27T03:55:50;101508.22;;;5.09;100.00
64521;BME280;50896;46.714;17.322;2024-01-27T03:58:17;101514.25;;;5.24;100.00
64521;BME280;50896;46.714;17.322;2024-01-27T04:00:44;101511.84;;;5.34;100.00
64521;BME280;50896;46.714;17.322;2024-01-27T04:03:12;101537.66;;;5.56;100.00
64521;BME280;50896;46.714;17.322;2024-01-27T04:05:39;101544.28;;;5.49;100.00
64521;BME280;50896;46.714;17.322;2024-01-27T04:08:06;101548.91;;;5.45;100.00
64521;BME280;50896;46.714;17.322;2024-01-27T04:10:33;101553.34;;;5.45;100.00
64521;BME280;50896;46.714;17.322;2024-01-27T04:13:00;101547.34;;;5.43;100.00
64521;BME280;50896;46.714;17.322;2024-01-27T04:15:28;101552.84;;;5.53;100.00
64521;BME280;50896;46.714;17.322;2024-01-27T04:17:56;101570.34;;;5.54;100.00
64521;BME280;50896;46.714;17.322;2024-01-27T04:20:23;101561.81;;;5.50;100.00
64521;BME280;50896;46.714;17.322;2024-01-27T04:22:49;101575.84;;;5.51;100.00
64521;BME280;50896;46.714;17.322;2024-01-27T04:25:16;101567.53;;;5.57;100.00
64521;BME280;50896;46.714;17.322;2024-01-27T04:27:43;101576.38;;;5.56;100.00
64521;BME280;50896;46.714;17.322;2024-01-27T04:30:11;101578.41;;;5.65;100.00
64521;BME280;50896;46.714;17.322;2024-01-27T04:32:39;101579.38;;;5.64;100.00
64521;BME280;50896;46.714;17.322;2024-01-27T04:35:10;101577.31;;;5.55;100.00
64521;BME280;50896;46.714;17.322;2024-01-27T04:37:38;101579.16;;;5.67;100.00
64521;BME280;50896;46.714;17.322;2024-01-27T04:40:05;101588.34;;;5.74;100.00
64521;BME280;50896;46.714;17.322;2024-01-27T04:42:37;101573.13;;;5.65;100.00
64521;BME280;50896;46.714;17.322;2024-01-27T04:45:05;101579.53;;;5.61;100.00
64521;BME280;50896;46.714;17.322;2024-01-27T04:47:32;101588.88;;;5.67;100.00
64521;BME280;50896;46.714;17.322;2024-01-27T04:49:59;101604.47;;;5.57;100.00
64521;BME280;50896;46.714;17.322;2024-01-27T04:52:26;101613.13;;;5.59;100.00
64521;BME280;50896;46.714;17.322;2024-01-27T04:54:53;101613.56;;;5.65;100.00
64521;BME280;50896;46.714;17.322;2024-01-27T04:57:20;101637.94;;;5.69;100.00
64521;BME280;50896;46.714;17.322;2024-01-27T04:59:47;101637.31;;;5.65;100.00
64521;BME280;50896;46.714;17.322;2024-01-27T05:02:15;101644.28;;;5.67;100.00
64521;BME280;50896;46.714;17.322;2024-01-27T05:04:41;101642.78;;;5.62;100.00
64521;BME280;50896;46.714;17.322;2024-01-27T05:07:08;101642.47;;;5.67;100.00
64521;BME280;50896;46.714;17.322;2024-01-27T05:09:35;101651.66;;;5.61;100.00
64521;BME280;50896;46.714;17.322;2024-01-27T05:12:03;101647.75;;;5.67;100.00
64521;BME280;50896;46.714;17.322;2024-01-27T05:14:30;101648.06;;;5.62;100.00
64521;BME280;50896;46.714;17.322;2024-01-27T05:16:57;101654.31;;;5.74;100.00
64521;BME280;50896;46.714;17.322;2024-01-27T05:19:24;101650.19;;;5.70;100.00
64521;BME280;50896;46.714;17.322;2024-01-27T05:21:51;101652.09;;;5.68;100.00
64521;BME280;50896;46.714;17.322;2024-01-27T05:24:18;101660.41;;;5.62;100.00
64521;BME280;50896;46.714;17.322;2024-01-27T05:26:45;101662.09;;;5.63;100.00
64521;BME280;50896;46.714;17.322;2024-01-27T05:29:12;101656.50;;;5.68;100.00
64521;BME280;50896;46.714;17.322;2024-01-27T05:31:40;101670.69;;;5.67;100.00
64521;BME280;50896;46.714;17.322;2024-01-27T05:34:10;101665.88;;;5.59;100.00
64521;BME280;50896;46.714;17.322;2024-01-27T05:36:37;101682.06;;;5.67;100.00
64521;BME280;50896;46.714;17.322;2024-01-27T05:39:04;101680.00;;;5.58;100.00
64521;BME280;50896;46.714;17.322;2024-01-27T05:41:32;101696.19;;;5.66;100.00
64521;BME280;50896;46.714;17.322;2024-01-27T05:43:59;101709.38;;;5.66;100.00
64521;BME280;50896;46.714;17.322;2024-01-27T05:46:26;101713.63;;;5.69;100.00
64521;BME280;50896;46.714;17.322;2024-01-27T05:48:53;101718.06;;;5.68;100.00
64521;BME280;50896;46.714;17.322;2024-01-27T05:51:22;101715.06;;;5.60;100.00
64521;BME280;50896;46.714;17.322;2024-01-27T05:53:53;101700.38;;;5.56;100.00
64521;BME280;50896;46.714;17.322;2024-01-27T05:56:20;101703.66;;;5.59;100.00
64521;BME280;50896;46.714;17.322;2024-01-27T05:58:49;101702.50;;;5.63;100.00
64521;BME280;50896;46.714;17.322;2024-01-27T06:01:19;101683.41;;;5.60;100.00
64521;BME280;50896;46.714;17.322;2024-01-27T06:03:46;101687.72;;;5.61;100.00
64521;BME280;50896;46.714;17.322;2024-01-27T06:06:13;101704.78;;;5.70;100.00
64521;BME280;50896;46.714;17.322;2024-01-27T06:08:41;101710.41;;;5.63;100.00
64521;BME280;50896;46.714;17.322;2024-01-27T06:11:08;101702.13;;;5.70;100.00
64521;BME280;50896;46.714;17.322;2024-01-27T06:13:36;101708.66;;;5.64;100.00
64521;BME280;50896;46.714;17.322;2024-01-27T06:16:08;101699.34;;;5.58;100.00
64521;BME280;50896;46.714;17.322;2024-01-27T06:18:37;101708.44;;;5.67;98.84
64521;BME280;50896;46.714;17.322;2024-01-27T06:21:05;101721.63;;;5.67;97.21
64521;BME280;50896;46.714;17.322;2024-01-27T06:23:33;101713.94;;;5.64;100.00
64521;BME280;50896;46.714;17.322;2024-01-27T06:26:07;101718.06;;;5.68;99.34
64521;BME280;50896;46.714;17.322;2024-01-27T06:28:34;101730.69;;;5.63;99.57
64521;BME280;50896;46.714;17.322;2024-01-27T06:31:02;101743.59;;;5.68;99.15
64521;BME280;50896;46.714;17.322;2024-01-27T06:33:30;101744.56;;;5.52;100.00
64521;BME280;50896;46.714;17.322;2024-01-27T06:35:57;101736.63;;;5.67;96.70
64521;BME280;50896;46.714;17.322;2024-01-27T06:38:24;101737.56;;;5.65;98.37
64521;BME280;50896;46.714;17.322;2024-01-27T06:40:51;101746.13;;;5.69;98.39
64521;BME280;50896;46.714;17.322;2024-01-27T06:43:19;101757.19;;;5.61;100.00
64521;BME280;50896;46.714;17.322;2024-01-27T06:45:45;101758.31;;;5.57;100.00
64521;BME280;50896;46.714;17.322;2024-01-27T06:48:12;101750.72;;;5.53;100.00
64521;BME280;50896;46.714;17.322;2024-01-27T06:50:39;101752.38;;;5.54;100.00
64521;BME280;50896;46.714;17.322;2024-01-27T06:53:06;101763.19;;;5.63;99.64
64521;BME280;50896;46.714;17.322;2024-01-27T06:55:33;101778.00;;;5.66;100.00
64521;BME280;50896;46.714;17.322;2024-01-27T06:58:00;101777.16;;;5.65;100.00
64521;BME280;50896;46.714;17.322;2024-01-27T07:00:27;101782.69;;;5.61;100.00
64521;BME280;50896;46.714;17.322;2024-01-27T07:02:54;101794.69;;;5.67;100.00
64521;BME280;50896;46.714;17.322;2024-01-27T07:05:22;101810.41;;;5.68;100.00
64521;BME280;50896;46.714;17.322;2024-01-27T07:07:49;101804.00;;;5.72;100.00
64521;BME280;50896;46.714;17.322;2024-01-27T07:10:16;101812.56;;;5.76;100.00
64521;BME280;50896;46.714;17.322;2024-01-27T07:12:43;101806.66;;;5.72;100.00
64521;BME280;50896;46.714;17.322;2024-01-27T07:15:09;101809.09;;;5.75;99.19
64521;BME280;50896;46.714;17.322;2024-01-27T07:17:36;101822.75;;;5.82;98.89
64521;BME280;50896;46.714;17.322;2024-01-27T07:20:03;101821.63;;;5.86;100.00
64521;BME280;50896;46.714;17.322;2024-01-27T07:22:32;101826.22;;;5.82;100.00
64521;BME280;50896;46.714;17.322;2024-01-27T07:25:00;101805.69;;;5.73;99.61
64521;BME280;50896;46.714;17.322;2024-01-27T07:27:26;101819.53;;;5.77;99.21
64521;BME280;50896;46.714;17.322;2024-01-27T07:29:53;101838.28;;;5.87;97.24
64521;BME280;50896;46.714;17.322;2024-01-27T07:32:20;101839.22;;;5.86;99.10
64521;BME280;50896;46.714;17.322;2024-01-27T07:34:48;101845.06;;;5.91;100.00
64521;BME280;50896;46.714;17.322;2024-01-27T07:37:15;101848.94;;;5.85;98.15
64521;BME280;50896;46.714;17.322;2024-01-27T07:39:42;101855.63;;;5.91;98.44
64521;BME280;50896;46.714;17.322;2024-01-27T07:42:09;101866.19;;;5.91;95.20
64521;BME280;50896;46.714;17.322;2024-01-27T07:44:36;101863.16;;;5.97;95.40
64521;BME280;50896;46.714;17.322;2024-01-27T07:47:03;101865.25;;;6.06;93.11
64521;BME280;50896;46.714;17.322;2024-01-27T07:49:30;101879.28;;;6.07;93.14
64521;BME280;50896;46.714;17.322;2024-01-27T07:51:57;101882.41;;;6.13;90.10
64521;BME280;50896;46.714;17.322;2024-01-27T07:54:24;101867.84;;;6.21;88.72
64521;BME280;50896;46.714;17.322;2024-01-27T07:56:51;101879.91;;;6.25;88.90
64521;BME280;50896;46.714;17.322;2024-01-27T07:59:18;101893.31;;;6.22;91.38
64521;BME280;50896;46.714;17.322;2024-01-27T08:01:46;101887.09;;;6.23;89.35
64521;BME280;50896;46.714;17.322;2024-01-27T08:04:12;101883.41;;;6.25;88.89
64521;BME280;50896;46.714;17.322;2024-01-27T08:06:50;101890.94;;;6.31;89.27
64521;BME280;50896;46.714;17.322;2024-01-27T08:09:17;101891.41;;;6.38;88.80
64521;BME280;50896;46.714;17.322;2024-01-27T08:11:45;101889.13;;;6.32;89.20
64521;BME280;50896;46.714;17.322;2024-01-27T08:14:12;101907.97;;;6.40;90.30
64521;BME280;50896;46.714;17.322;2024-01-27T08:16:39;101905.34;;;6.40;88.47
64521;BME280;50896;46.714;17.322;2024-01-27T08:19:06;101903.00;;;6.36;89.54
64521;BME280;50896;46.714;17.322;2024-01-27T08:21:32;101900.72;;;6.44;89.67
64521;BME280;50896;46.714;17.322;2024-01-27T08:24:00;101913.84;;;6.45;88.37
64521;BME280;50896;46.714;17.322;2024-01-27T08:26:27;101911.28;;;6.44;90.55
64521;BME280;50896;46.714;17.322;2024-01-27T08:28:53;101925.22;;;6.46;88.50
64521;BME280;50896;46.714;17.322;2024-01-27T08:31:22;101923.47;;;6.46;88.44
64521;BME280;50896;46.714;17.322;2024-01-27T08:33:49;101915.69;;;6.58;92.03
64521;BME280;50896;46.714;17.322;2024-01-27T08:36:17;101920.81;;;6.46;87.40
64521;BME280;50896;46.714;17.322;2024-01-27T08:38:44;101919.56;;;6.52;86.99
64521;BME280;50896;46.714;17.322;2024-01-27T08:41:12;101922.31;;;6.50;88.70
64521;BME280;50896;46.714;17.322;2024-01-27T08:43:39;101933.25;;;6.59;89.47
64521;BME280;50896;46.714;17.322;2024-01-27T08:46:06;101946.25;;;6.62;89.73
64521;BME280;50896;46.714;17.322;2024-01-27T08:48:38;101933.03;;;6.62;87.50
64521;BME280;50896;46.714;17.322;2024-01-27T08:51:09;101929.53;;;6.61;85.86
64521;BME280;50896;46.714;17.322;2024-01-27T08:53:36;101935.34;;;6.81;86.72
64521;BME280;50896;46.714;17.322;2024-01-27T08:56:03;101948.56;;;6.81;87.60
64521;BME280;50896;46.714;17.322;2024-01-27T08:58:31;101955.31;;;6.85;89.64
64521;BME280;50896;46.714;17.322;2024-01-27T09:00:58;101956.06;;;6.87;85.60
64521;BME280;50896;46.714;17.322;2024-01-27T09:03:27;101958.88;;;6.98;86.35
64521;BME280;50896;46.714;17.322;2024-01-27T09:05:53;101976.31;;;7.01;85.97
64521;BME280;50896;46.714;17.322;2024-01-27T09:08:20;101952.75;;;6.98;83.78
64521;BME280;50896;46.714;17.322;2024-01-27T09:10:47;101960.69;;;7.11;84.17
64521;BME280;50896;46.714;17.322;2024-01-27T09:13:14;101957.22;;;7.10;86.45
64521;BME280;50896;46.714;17.322;2024-01-27T09:15:40;101958.41;;;7.19;84.77
64521;BME280;50896;46.714;17.322;2024-01-27T09:18:08;101957.13;;;7.25;83.57
64521;BME280;50896;46.714;17.322;2024-01-27T09:20:35;101960.50;;;7.27;84.39
64521;BME280;50896;46.714;17.322;2024-01-27T09:23:02;101950.81;;;7.40;84.09
64521;BME280;50896;46.714;17.322;2024-01-27T09:25:29;101967.84;;;7.49;84.13
64521;BME280;50896;46.714;17.322;2024-01-27T09:27:57;101956.00;;;7.55;85.91
64521;BME280;50896;46.714;17.322;2024-01-27T09:30:27;101959.63;;;7.53;82.73
64521;BME280;50896;46.714;17.322;2024-01-27T09:32:57;101954.84;;;7.59;76.66
64521;BME280;50896;46.714;17.322;2024-01-27T09:35:24;101952.31;;;7.70;73.87
64521;BME280;50896;46.714;17.322;2024-01-27T09:37:51;101963.66;;;7.72;75.17
64521;BME280;50896;46.714;17.322;2024-01-27T09:40:18;101970.63;;;7.86;76.81
64521;BME280;50896;46.714;17.322;2024-01-27T09:42:52;101962.38;;;7.91;73.35
64521;BME280;50896;46.714;17.322;2024-01-27T09:45:22;101962.16;;;7.94;72.16
64521;BME280;50896;46.714;17.322;2024-01-27T09:47:51;101973.03;;;8.15;72.61
64521;BME280;50896;46.714;17.322;2024-01-27T09:50:19;101961.72;;;8.13;72.61
64521;BME280;50896;46.714;17.322;2024-01-27T09:52:48;101978.34;;;8.28;73.55
64521;BME280;50896;46.714;17.322;2024-01-27T09:55:15;101965.38;;;8.23;70.88
64521;BME280;50896;46.714;17.322;2024-01-27T09:57:44;101976.09;;;8.34;69.36
64521;BME280;50896;46.714;17.322;2024-01-27T10:00:11;101969.94;;;8.34;70.40
64521;BME280;50896;46.714;17.322;2024-01-27T10:02:42;101958.38;;;8.48;69.28
64521;BME280;50896;46.714;17.322;2024-01-27T10:05:09;101956.66;;;8.47;66.05
64521;BME280;50896;46.714;17.322;2024-01-27T10:07:37;101959.22;;;8.48;67.64
64521;BME280;50896;46.714;17.322;2024-01-27T10:10:04;101958.91;;;8.40;65.98
64521;BME280;50896;46.714;17.322;2024-01-27T10:12:32;101958.91;;;8.27;64.29
64521;BME280;50896;46.714;17.322;2024-01-27T10:15:02;101957.09;;;8.53;65.91
64521;BME280;50896;46.714;17.322;2024-01-27T10:17:29;101957.44;;;8.49;67.91
64521;BME280;50896;46.714;17.322;2024-01-27T10:20:02;101959.31;;;8.47;66.42
64521;BME280;50896;46.714;17.322;2024-01-27T10:22:43;101955.06;;;8.57;66.54
64521;BME280;50896;46.714;17.322;2024-01-27T10:25:12;101946.88;;;8.60;59.95
64521;BME280;50896;46.714;17.322;2024-01-27T10:27:39;101947.94;;;8.58;59.64
64521;BME280;50896;46.714;17.322;2024-01-27T10:30:15;101937.81;;;8.76;60.11
64521;BME280;50896;46.714;17.322;2024-01-27T10:32:56;101938.81;;;8.62;61.05
64521;BME280;50896;46.714;17.322;2024-01-27T10:35:24;101951.47;;;8.82;63.26
64521;BME280;50896;46.714;17.322;2024-01-27T10:37:52;101939.56;;;8.64;64.57
64521;BME280;50896;46.714;17.322;2024-01-27T10:40:24;101939.22;;;8.68;62.39
64521;BME280;50896;46.714;17.322;2024-01-27T10:43:10;101936.56;;;8.68;56.64
64521;BME280;50896;46.714;17.322;2024-01-27T10:45:41;101943.75;;;8.79;61.98
64521;BME280;50896;46.714;17.322;2024-01-27T10:48:10;101944.94;;;8.75;62.52
64521;BME280;50896;46.714;17.322;2024-01-27T10:50:39;101950.31;;;8.98;60.51
64521;BME280;50896;46.714;17.322;2024-01-27T10:53:24;101957.13;;;9.13;62.68
64521;BME280;50896;46.714;17.322;2024-01-27T10:55:54;101941.50;;;9.21;59.92
64521;BME280;50896;46.714;17.322;2024-01-27T10:58:24;101944.59;;;9.15;57.76
64521;BME280;50896;46.714;17.322;2024-01-27T11:00:52;101936.19;;;9.21;59.96
64521;BME280;50896;46.714;17.322;2024-01-27T11:03:21;101930.50;;;9.26;59.19
64521;BME280;50896;46.714;17.322;2024-01-27T11:05:50;101936.69;;;9.27;56.44
64521;BME280;50896;46.714;17.322;2024-01-27T11:08:18;101930.63;;;9.24;56.68
64521;BME280;50896;46.714;17.322;2024-01-27T11:10:46;101924.13;;;9.29;58.37
64521;BME280;50896;46.714;17.322;2024-01-27T11:13:13;101916.97;;;9.18;59.61
64521;BME280;50896;46.714;17.322;2024-01-27T11:15:51;101913.88;;;9.24;57.97
64521;BME280;50896;46.714;17.322;2024-01-27T11:18:19;101913.66;;;9.38;58.63
64521;BME280;50896;46.714;17.322;2024-01-27T11:20:46;101915.00;;;9.44;59.23
64521;BME280;50896;46.714;17.322;2024-01-27T11:23:13;101912.06;;;9.36;52.85
64521;BME280;50896;46.714;17.322;2024-01-27T11:25:43;101914.19;;;9.89;55.02
64521;BME280;50896;46.714;17.322;2024-01-27T11:28:11;101920.69;;;10.19;56.03
64521;BME280;50896;46.714;17.322;2024-01-27T11:30:48;101923.19;;;10.32;56.30
64521;BME280;50896;46.714;17.322;2024-01-27T11:33:17;101918.50;;;10.35;57.80
64521;BME280;50896;46.714;17.322;2024-01-27T11:35:46;101918.72;;;10.32;56.70
64521;BME280;50896;46.714;17.322;2024-01-27T11:38:12;101915.22;;;10.32;53.09
64521;BME280;50896;46.714;17.322;2024-01-27T11:40:47;101909.56;;;10.36;53.86
64521;BME280;50896;46.714;17.322;2024-01-27T11:43:14;101905.06;;;10.48;53.29
64521;BME280;50896;46.714;17.322;2024-01-27T11:45:41;101903.38;;;11.64;50.49
64521;BME280;50896;46.714;17.322;2024-01-27T11:48:08;101896.25;;;12.95;43.97
64521;BME280;50896;46.714;17.322;2024-01-27T11:50:35;101890.16;;;13.79;41.87
64521;BME280;50896;46.714;17.322;2024-01-27T11:53:04;101886.28;;;15.10;38.03
64521;BME280;50896;46.714;17.322;2024-01-27T11:55:34;101890.44;;;15.83;37.95
64521;BME280;50896;46.714;17.322;2024-01-27T11:58:00;101883.38;;;16.25;36.85
64521;BME280;50896;46.714;17.322;2024-01-27T12:00:27;101880.41;;;16.85;36.55
64521;BME280;50896;46.714;17.322;2024-01-27T12:02:54;101878.59;;;15.59;37.74
64521;BME280;50896;46.714;17.322;2024-01-27T12:05:21;101875.53;;;15.54;37.61
64521;BME280;50896;46.714;17.322;2024-01-27T12:07:48;101877.50;;;15.17;38.40
64521;BME280;50896;46.714;17.322;2024-01-27T12:10:15;101887.38;;;13.99;39.83
64521;BME280;50896;46.714;17.322;2024-01-27T12:12:42;101886.28;;;12.68;42.56
64521;BME280;50896;46.714;17.322;2024-01-27T12:15:08;101896.31;;;12.25;43.00
64521;BME280;50896;46.714;17.322;2024-01-27T12:17:35;101886.34;;;11.76;44.46
64521;BME280;50896;46.714;17.322;2024-01-27T12:20:14;101893.63;;;11.01;46.53
64521;BME280;50896;46.714;17.322;2024-01-27T12:22:42;101873.19;;;10.48;48.05
64521;BME280;50896;46.714;17.322;2024-01-27T12:25:12;101886.25;;;10.06;50.39
64521;BME280;50896;46.714;17.322;2024-01-27T12:27:41;101869.97;;;10.87;48.41
64521;BME280;50896;46.714;17.322;2024-01-27T12:30:09;101873.09;;;10.92;47.80
64521;BME280;50896;46.714;17.322;2024-01-27T12:32:37;101866.78;;;10.72;48.17
64521;BME280;50896;46.714;17.322;2024-01-27T12:35:07;101862.19;;;11.68;46.83
64521;BME280;50896;46.714;17.322;2024-01-27T12:37:35;101859.31;;;12.61;45.05
64521;BME280;50896;46.714;17.322;2024-01-27T12:40:02;101855.63;;;12.23;45.57
64521;BME280;50896;46.714;17.322;2024-01-27T12:42:29;101860.31;;;11.59;45.71
64521;BME280;50896;46.714;17.322;2024-01-27T12:44:56;101864.06;;;11.25;47.58